Pagina principale
METAR-TAF:

METAR-TAF

Aeroporti :

Aeroporto Internazionale Faa'a

Tahiti, Polinesia francese

latitudine: 17-33S, longitudine: 149-37W, altezza: 2 m

Osservazione

Il bollettino è stato emesso 15 minuti fa, alle 02:30 UTC
Vento 11 kt da est/nord-est
Temperature 29°C
Umidità 66%
Pressione 1012 hPa
Visibilità 10 km o più
Poco nuvoloso ad un'altezza di 2300 ft

METAR: NTAA 190230Z 07011KT 9999 FEW023 29/22 Q1012 NOSIG

Ora: 16:45 (02:45 UTC)

Previsione

Il bollettino è stato emesso 3 ore e 45 minuti fa, alle 23:00 UTC
Previsione valida dal 19 alle 00 UTC al 20 alle 06 UTC
Vento 16 kt da nord-est
Visibilità 10 km o più
Poco nuvoloso ad un'altezza di 2500 ft
Nubi sparse ad un'altezza di 5000 ft
Evoluzione graduale
dal 19 alle 05 UTC al 19 alle 07 UTC
Vento 3 kt da direzioni variabili
Evoluzione graduale
dal 19 alle 18 UTC al 19 alle 20 UTC
Vento 14 kt da nord-est

TAF: NTAA 182300Z 1900/2006 04016KT 9999 FEW025 SCT050 BECMG 1905/1907 VRB03KT BECMG 1918/1920 05014KT

Osservazioni e previsioni meteorologiche di più di 4000 aeroporti (messaggi METAR e TAF).

Le stazioni disponibili sono rappresentate dai dischi gialli e rossi sulla carta.

Puntare il mouse per vedere il nome della stazione.

Clicca sopra per visualizzare le osservazioni e previsioni meteorologiche.

Per cambiare la mappa : fare clic sui pulsanti verdi con una croce nera per ingrandire, il pulsante verde con un trattino per diminuire, o sulla freccia verde per le mappe adiacenti.


METAR-TAF: